Time;durP1;ratioP1;P1;durP2;ratioP2;P2;SDS_P1;SDS_P2;PMS_P1;PMS_P2;Temp;Humidity;BMP_temperature;BMP_pressure;BME280_temperature;BME280_humidity;BME280_pressure;Samples;Min_cycle;Max_cycle;Signal;HPM_P1;HPM_P2
2023/09/23 00:02:27;;;;;;;3.50;0.50;;;;;;;19.24;56.32;96295.78;10280798;28;20113;-26
2023/09/23 00:07:28;;;;;;;1.23;0.70;;;;;;;19.21;56.44;96288.19;10285525;28;20088;-26
2023/09/23 00:12:30;;;;;;;2.70;0.65;;;;;;;19.20;56.78;96289.06;10289559;28;20035;-25
2023/09/23 00:17:32;;;;;;;3.35;0.73;;;;;;;19.14;56.14;96297.53;10283052;28;20034;-26
2023/09/23 00:22:34;;;;;;;3.05;1.15;;;;;;;19.20;55.54;96294.13;10286038;28;20034;-26
2023/09/23 00:27:34;;;;;;;2.05;0.40;;;;;;;19.17;55.84;96300.03;10282830;28;20125;-25
2023/09/23 00:32:34;;;;;;;2.00;0.67;;;;;;;19.14;55.60;96294.13;10279028;28;20405;-26
2023/09/23 00:37:35;;;;;;;2.53;0.60;;;;;;;19.05;55.72;96290.00;10284630;28;20274;-26
2023/09/23 00:42:38;;;;;;;4.00;0.70;;;;;;;19.05;55.56;96295.09;10281669;28;20038;-26
2023/09/23 00:47:38;;;;;;;2.30;0.93;;;;;;;19.06;55.40;96288.28;10279559;28;20039;-26
2023/09/23 00:52:39;;;;;;;2.83;0.50;;;;;;;19.08;54.78;96291.69;10283720;28;20039;-26
2023/09/23 00:57:41;;;;;;;3.33;0.60;;;;;;;19.02;54.67;96304.41;10295973;28;20118;-26
2023/09/23 01:02:41;;;;;;;1.55;0.50;;;;;;;18.99;54.62;96319.69;10279228;28;20115;-26
2023/09/23 01:07:42;;;;;;;1.07;0.70;;;;;;;18.99;54.57;96317.13;10299700;28;20039;-26
2023/09/23 01:12:45;;;;;;;0.90;0.40;;;;;;;18.97;54.39;96326.44;10276996;28;20418;-26
2023/09/23 01:17:49;;;;;;;0.57;0.28;;;;;;;18.94;54.29;96334.94;10283110;28;20066;-26
2023/09/23 01:22:50;;;;;;;2.10;0.40;;;;;;;18.92;53.77;96346.75;10295161;28;20027;-26
2023/09/23 01:27:51;;;;;;;0.65;0.52;;;;;;;18.90;54.00;96355.22;10295795;28;20039;-26
2023/09/23 01:32:52;;;;;;;3.05;0.40;;;;;;;18.89;54.19;96359.47;10286253;28;20121;-26
2023/09/23 01:37:52;;;;;;;1.95;0.57;;;;;;;18.82;53.94;96362.09;10283785;28;20077;-26
2023/09/23 01:42:53;;;;;;;1.13;0.30;;;;;;;18.82;54.06;96362.09;10290694;28;20034;-26
2023/09/23 01:47:57;;;;;;;1.48;0.70;;;;;;;18.82;53.85;96360.38;10286370;28;20121;-27
2023/09/23 01:53:00;;;;;;;1.15;0.40;;;;;;;18.78;54.20;96357.88;10282554;28;20038;-26
2023/09/23 01:58:01;;;;;;;1.63;0.60;;;;;;;18.78;53.60;96371.41;10286991;28;20053;-26
2023/09/23 02:03:02;;;;;;;0.22;0.22;;;;;;;18.73;53.66;96369.72;10293560;28;20141;-25
2023/09/23 02:08:03;;;;;;;1.98;0.43;;;;;;;18.71;53.66;96373.97;10281811;28;20042;-26
2023/09/23 02:13:03;;;;;;;1.88;1.23;;;;;;;18.69;53.77;96380.75;10287270;28;20041;-25
2023/09/23 02:18:04;;;;;;;0.47;0.43;;;;;;;18.66;53.30;96383.31;10288476;28;20035;-26
2023/09/23 02:23:05;;;;;;;0.77;0.50;;;;;;;18.60;53.23;96390.94;10287370;28;20034;-26
2023/09/23 02:28:06;;;;;;;0.85;0.40;;;;;;;18.64;52.95;96405.28;10283865;28;20126;-27
2023/09/23 02:33:09;;;;;;;0.73;0.40;;;;;;;18.63;52.96;96386.72;10286794;28;20043;-25
2023/09/23 02:38:10;;;;;;;0.75;0.32;;;;;;;18.56;52.51;96395.19;10281983;28;20038;-27
2023/09/23 02:43:10;;;;;;;1.33;0.50;;;;;;;18.61;52.71;96405.31;10294028;28;20037;-26
2023/09/23 02:48:13;;;;;;;0.85;0.45;;;;;;;18.53;52.90;96419.72;10286503;28;20049;-26
2023/09/23 02:53:13;;;;;;;1.23;0.40;;;;;;;18.53;52.36;96420.56;10286723;28;20069;-25
2023/09/23 02:58:14;;;;;;;1.57;0.30;;;;;;;18.48;53.02;96416.34;10291351;28;20036;-26
2023/09/23 03:03:19;;;;;;;2.08;0.50;;;;;;;18.42;52.66;96421.47;10288729;28;20023;-26
2023/09/23 03:08:19;;;;;;;1.08;0.40;;;;;;;18.44;52.48;96435.84;10278958;28;20035;-25
2023/09/23 03:13:23;;;;;;;0.40;0.38;;;;;;;18.43;52.51;96443.44;10285991;28;20725;-26
2023/09/23 03:23:50;;;;;;;0.60;0.32;;;;;;;18.37;52.48;96438.38;10287194;28;20158;-26
2023/09/23 03:28:51;;;;;;;2.10;0.53;;;;;;;18.39;52.15;96436.66;10286989;28;20517;-25
2023/09/23 03:33:51;;;;;;;1.95;0.47;;;;;;;18.43;51.93;96429.03;10284581;28;20035;-26
2023/09/23 03:38:53;;;;;;;5.60;0.65;;;;;;;18.45;51.62;96414.69;10294114;28;20038;-26
2023/09/23 03:43:53;;;;;;;1.27;0.60;;;;;;;18.34;52.18;96420.66;10286088;28;20489;-26
2023/09/23 03:48:54;;;;;;;2.20;1.00;;;;;;;18.32;52.06;96424.91;10281708;28;20047;-25
2023/09/23 03:53:56;;;;;;;2.00;0.70;;;;;;;18.30;52.09;96431.66;10289707;28;20301;-27
2023/09/23 03:58:56;;;;;;;0.80;0.60;;;;;;;18.24;52.18;96447.69;10283996;28;20035;-26
2023/09/23 04:03:56;;;;;;;0.63;0.33;;;;;;;18.14;52.24;96437.56;10284998;28;20027;-26
2023/09/23 04:08:58;;;;;;;1.90;0.53;;;;;;;18.15;51.97;96436.75;10283947;28;20030;-26
2023/09/23 04:13:59;;;;;;;4.13;0.52;;;;;;;18.26;51.62;96440.09;10274822;28;20047;-25
2023/09/23 04:18:59;;;;;;;2.10;0.40;;;;;;;18.24;51.79;96451.94;10286052;28;20034;-26
2023/09/23 04:24:01;;;;;;;0.83;0.50;;;;;;;18.18;51.77;96457.81;10284296;28;20037;-26
2023/09/23 04:29:01;;;;;;;2.42;0.82;;;;;;;18.18;51.86;96454.47;10286103;28;20038;-26
2023/09/23 04:34:02;;;;;;;3.05;0.70;;;;;;;18.18;51.86;96451.94;10287838;28;20474;-26
2023/09/23 04:39:05;;;;;;;1.30;0.40;;;;;;;18.08;52.01;96462.94;10290287;28;20042;-26
2023/09/23 04:44:06;;;;;;;1.67;0.43;;;;;;;18.11;51.68;96473.06;10285666;28;20508;-26
2023/09/23 04:49:06;;;;;;;1.17;0.40;;;;;;;18.16;51.72;96479.81;10280773;28;20125;-25
2023/09/23 04:54:07;;;;;;;4.50;0.70;;;;;;;18.22;51.26;96471.34;10289305;28;20057;-26
2023/09/23 04:59:07;;;;;;;1.10;0.80;;;;;;;18.25;50.97;96463.75;10291188;28;20313;-25
2023/09/23 05:04:08;;;;;;;1.90;0.60;;;;;;;17.99;51.83;96480.72;10291261;28;20058;-25
2023/09/23 05:09:08;;;;;;;1.30;0.33;;;;;;;17.97;52.52;96482.38;10290066;28;20042;-26
2023/09/23 05:14:09;;;;;;;0.63;0.40;;;;;;;17.81;52.14;96490.84;10291276;28;20031;-27
2023/09/23 05:19:11;;;;;;;0.60;0.35;;;;;;;17.77;52.37;96494.22;10289260;28;20045;-26
2023/09/23 05:24:11;;;;;;;3.80;0.32;;;;;;;17.86;52.07;96505.22;10288115;28;20039;-26
2023/09/23 05:29:12;;;;;;;0.93;0.30;;;;;;;17.82;52.06;96512.81;10290382;28;20053;-25
2023/09/23 05:34:15;;;;;;;0.93;0.30;;;;;;;17.88;51.64;96507.72;10288464;28;20308;-26
2023/09/23 05:39:19;;;;;;;0.68;0.40;;;;;;;18.00;51.00;96528.81;10289198;28;20113;-26
2023/09/23 05:44:19;;;;;;;0.57;0.50;;;;;;;17.96;51.20;96523.75;10263033;28;20850;-26
2023/09/23 05:49:20;;;;;;;3.10;0.87;;;;;;;17.86;52.05;96534.75;10228887;28;20043;-27
2023/09/23 05:54:22;;;;;;;0.95;0.40;;;;;;;17.84;51.56;96546.56;10234921;28;20053;-27
2023/09/23 05:59:23;;;;;;;2.22;0.47;;;;;;;17.81;52.54;96549.06;10241687;28;20050;-27
2023/09/23 06:04:23;;;;;;;0.70;0.53;;;;;;;17.74;52.48;96553.31;10247401;28;20035;-27
2023/09/23 06:09:24;;;;;;;0.98;0.40;;;;;;;17.66;52.63;96561.75;10285470;28;20355;-27
2023/09/23 06:14:25;;;;;;;1.35;0.50;;;;;;;17.70;52.28;96563.44;10284798;28;20743;-27
2023/09/23 06:19:25;;;;;;;1.83;0.70;;;;;;;17.64;52.35;96568.47;10284017;28;20041;-26
2023/09/23 06:24:26;;;;;;;1.60;0.50;;;;;;;17.73;52.17;96578.66;10285899;28;20027;-26
2023/09/23 06:29:27;;;;;;;3.10;0.60;;;;;;;17.76;52.65;96578.63;10290368;28;20431;-26
2023/09/23 06:34:27;;;;;;;1.33;0.40;;;;;;;17.67;52.17;96594.66;10287307;28;20485;-27
2023/09/23 06:39:28;;;;;;;2.50;0.60;;;;;;;17.70;52.42;96604.81;10289253;28;20489;-26
2023/09/23 06:44:28;;;;;;;1.40;0.55;;;;;;;17.74;52.72;96595.53;10289027;28;20285;-26
2023/09/23 06:49:29;;;;;;;1.57;0.50;;;;;;;17.73;52.81;96603.97;10283031;28;20042;-26
2023/09/23 06:54:29;;;;;;;2.85;0.55;;;;;;;17.73;52.83;96597.19;10281739;28;20038;-27
2023/09/23 06:59:29;;;;;;;1.30;0.55;;;;;;;17.74;53.49;96605.66;10289310;28;20327;-26
2023/09/23 07:04:30;;;;;;;4.67;0.97;;;;;;;17.74;53.33;96614.06;10306174;28;20070;-27
2023/09/23 07:09:31;;;;;;;0.70;0.40;;;;;;;17.80;52.81;96626.75;10303351;28;20519;-26
2023/09/23 07:14:31;;;;;;;2.55;0.77;;;;;;;17.93;52.59;96625.06;10289703;28;20118;-26
2023/09/23 07:19:32;;;;;;;0.83;0.30;;;;;;;17.87;52.69;96642.78;10284513;28;20038;-27
2023/09/23 07:24:36;;;;;;;2.92;0.70;;;;;;;17.97;52.83;96649.53;10286374;28;20760;-26
2023/09/23 07:29:36;;;;;;;2.20;0.80;;;;;;;18.49;51.98;96647.03;10286989;28;20039;-26
2023/09/23 07:34:36;;;;;;;1.13;0.70;;;;;;;18.67;52.10;96651.25;10289950;28;20482;-27
2023/09/23 07:39:38;;;;;;;1.77;0.67;;;;;;;18.91;51.64;96648.66;10279000;28;20289;-26
2023/09/23 07:44:39;;;;;;;2.30;0.60;;;;;;;18.99;51.43;96649.50;10288957;28;20451;-26
2023/09/23 07:49:39;;;;;;;3.53;1.00;;;;;;;19.11;51.58;96660.44;10283151;28;20101;-27
2023/09/23 07:54:39;;;;;;;3.13;0.60;;;;;;;19.12;51.99;96668.88;10278458;28;20035;-27
2023/09/23 07:59:41;;;;;;;2.50;0.83;;;;;;;19.07;51.75;96678.19;10286857;28;20420;-27
2023/09/23 08:04:42;;;;;;;2.08;1.10;;;;;;;19.00;51.32;96687.50;10283602;28;20093;-27
2023/09/23 08:09:42;;;;;;;1.97;0.67;;;;;;;19.09;51.70;96686.66;10283302;28;20041;-26
2023/09/23 08:14:43;;;;;;;1.60;0.80;;;;;;;19.10;51.61;96690.88;10289819;28;20039;-28
2023/09/23 08:19:44;;;;;;;5.17;1.30;;;;;;;18.94;51.28;96696.84;10286811;28;20098;-27
2023/09/23 08:24:44;;;;;;;3.45;0.70;;;;;;;19.02;52.46;96705.28;10276921;28;20037;-26
2023/09/23 08:29:45;;;;;;;2.67;0.70;;;;;;;19.02;52.06;96701.03;10297656;28;20049;-25
2023/09/23 08:34:45;;;;;;;2.80;0.77;;;;;;;19.10;51.98;96716.25;10291462;28;20548;-25
2023/09/23 08:39:46;;;;;;;2.05;0.60;;;;;;;19.22;51.69;96713.72;10293274;28;20043;-27
2023/09/23 08:44:49;;;;;;;7.83;1.30;;;;;;;19.29;51.99;96728.94;10294518;28;20117;-27
2023/09/23 08:49:51;;;;;;;20.65;1.88;;;;;;;19.12;52.17;96732.31;10291760;28;20301;-27
2023/09/23 08:54:51;;;;;;;5.18;1.30;;;;;;;19.27;52.09;96742.47;10289325;28;20093;-27
2023/09/23 08:59:52;;;;;;;11.67;3.27;;;;;;;19.33;52.11;96733.13;10293349;28;20026;-26
2023/09/23 09:04:54;;;;;;;2.37;0.80;;;;;;;19.37;52.06;96744.13;10295004;28;20049;-27
2023/09/23 09:09:55;;;;;;;9.10;1.63;;;;;;;19.43;52.08;96739.03;10293168;28;20352;-26
2023/09/23 09:14:55;;;;;;;5.50;0.93;;;;;;;19.49;52.15;96744.09;10292221;28;20400;-27
2023/09/23 09:19:56;;;;;;;4.20;1.00;;;;;;;19.52;52.17;96747.44;10289537;28;20057;-26
2023/09/23 09:24:56;;;;;;;3.43;1.37;;;;;;;19.58;52.06;96749.16;10296096;28;20296;-27
2023/09/23 09:29:56;;;;;;;1.70;0.70;;;;;;;19.59;52.28;96751.66;10295418;28;20031;-28
2023/09/23 09:35:03;;;;;;;4.17;1.23;;;;;;;19.62;52.35;96755.88;10293848;28;20031;-27
2023/09/23 09:40:11;;;;;;;2.28;0.77;;;;;;;19.64;52.57;96756.72;10290792;28;20166;-26
2023/09/23 09:45:13;;;;;;;2.13;0.85;;;;;;;19.66;52.52;96752.50;10294853;28;20034;-26
2023/09/23 09:50:14;;;;;;;3.13;1.58;;;;;;;19.67;52.73;96744.84;10294664;28;20038;-27
2023/09/23 09:55:17;;;;;;;7.85;1.80;;;;;;;19.70;52.96;96738.94;10290897;28;20461;-27
2023/09/23 10:00:30;;;;;;;4.75;1.05;;;;;;;19.70;52.95;96744.00;10296585;28;20169;-26
2023/09/23 10:05:35;;;;;;;3.95;1.15;;;;;;;19.70;52.96;96747.41;10291828;28;20117;-27
2023/09/23 10:10:36;;;;;;;5.72;1.65;;;;;;;19.73;52.87;96742.31;10288677;28;20058;-27
2023/09/23 10:15:40;;;;;;;2.88;1.10;;;;;;;19.71;53.12;96740.63;10292153;28;20027;-26
2023/09/23 10:20:49;;;;;;;10.45;3.22;;;;;;;19.66;53.08;96742.34;10293186;28;20030;-26
2023/09/23 10:25:52;;;;;;;5.13;2.30;;;;;;;19.69;52.83;96738.06;10285925;28;20078;-27
2023/09/23 10:31:00;;;;;;;3.00;1.42;;;;;;;19.68;52.77;96745.72;10292729;28;20404;-26
2023/09/23 10:36:03;;;;;;;4.07;1.65;;;;;;;19.71;52.74;96744.00;10288366;28;20477;-27
2023/09/23 10:41:04;;;;;;;2.97;1.20;;;;;;;19.70;52.68;96741.47;10290603;28;20505;-26
2023/09/23 10:46:05;;;;;;;4.78;1.00;;;;;;;19.69;52.72;96753.31;10293509;28;20089;-26
2023/09/23 10:51:06;;;;;;;1.55;1.13;;;;;;;19.68;52.36;96756.69;10288529;28;20482;-26
2023/09/23 10:56:10;;;;;;;1.45;0.90;;;;;;;19.67;52.77;96755.00;10287497;28;20035;-27
2023/09/23 11:01:11;;;;;;;1.70;0.77;;;;;;;19.67;52.75;96754.19;10285426;28;20452;-26
2023/09/23 11:06:16;;;;;;;1.17;0.70;;;;;;;19.69;52.74;96752.47;10290296;28;20053;-26
2023/09/23 11:11:17;;;;;;;1.17;0.65;;;;;;;19.70;52.57;96759.25;10285213;28;20049;-27
2023/09/23 11:16:17;;;;;;;1.95;0.60;;;;;;;19.68;53.05;96763.50;10282489;28;20049;-27
2023/09/23 11:21:18;;;;;;;1.80;0.80;;;;;;;19.69;52.31;96760.09;10290911;28;20025;-27
2023/09/23 11:26:18;;;;;;;3.07;0.77;;;;;;;19.66;52.05;96767.75;10281094;28;20045;-25
2023/09/23 11:31:19;;;;;;;2.03;0.80;;;;;;;19.68;52.63;96763.50;10285667;28;20293;-26
2023/09/23 11:36:19;;;;;;;1.23;0.50;;;;;;;19.67;52.77;96764.34;10284007;28;20034;-28
2023/09/23 11:41:19;;;;;;;1.80;0.57;;;;;;;19.65;52.76;96753.31;10284245;28;20039;-27
2023/09/23 11:46:22;;;;;;;1.27;0.70;;;;;;;19.69;52.58;96757.56;10284835;28;20156;-27
2023/09/23 11:51:22;;;;;;;2.40;0.47;;;;;;;19.66;52.80;96749.97;10284216;28;20126;-26
2023/09/23 11:56:22;;;;;;;2.73;0.90;;;;;;;19.72;53.01;96753.31;10284728;28;20027;-27
2023/09/23 12:01:23;;;;;;;5.10;0.73;;;;;;;19.54;52.61;96750.00;10273977;28;20047;-26
2023/09/23 12:06:24;;;;;;;2.30;0.40;;;;;;;19.34;51.93;96755.13;10280619;28;20489;-26
2023/09/23 12:11:26;;;;;;;1.88;1.08;;;;;;;19.09;49.32;96752.63;10282705;28;20045;-27
2023/09/23 12:16:26;;;;;;;1.20;0.55;;;;;;;19.16;50.11;96754.31;10285627;28;20030;-26
2023/09/23 12:21:27;;;;;;;2.57;0.80;;;;;;;19.19;49.74;96751.81;10287222;28;20475;-27
2023/09/23 12:26:28;;;;;;;2.87;1.13;;;;;;;19.22;50.25;96751.78;10281876;28;20294;-26
2023/09/23 12:31:29;;;;;;;3.08;0.60;;;;;;;19.18;48.87;96745.00;10283748;28;20054;-27
2023/09/23 12:36:29;;;;;;;5.77;1.53;;;;;;;19.20;48.80;96745.88;10285152;28;20043;-27
2023/09/23 12:41:30;;;;;;;4.13;1.17;;;;;;;19.05;47.17;96745.88;10283593;28;20049;-26
2023/09/23 12:46:31;;;;;;;1.30;0.75;;;;;;;18.99;46.75;96746.72;10284880;28;20089;-26
2023/09/23 12:51:31;;;;;;;3.13;0.80;;;;;;;18.93;46.39;96745.91;10287416;28;20058;-26
2023/09/23 12:56:32;;;;;;;3.47;0.68;;;;;;;18.92;46.35;96772.13;10275512;28;20058;-26
2023/09/23 13:01:35;;;;;;;1.10;0.70;;;;;;;19.02;46.82;96794.09;10282181;28;20054;-27
2023/09/23 13:06:36;;;;;;;3.28;0.80;;;;;;;19.10;49.04;96805.91;10282276;28;20173;-29
2023/09/23 13:11:38;;;;;;;4.80;0.90;;;;;;;19.43;50.34;96816.03;10276315;28;20031;-25
2023/09/23 13:16:38;;;;;;;3.53;1.40;;;;;;;19.47;49.86;96816.88;10283509;28;20027;-26
2023/09/23 13:21:38;;;;;;;2.50;0.90;;;;;;;19.58;50.52;96835.50;10294152;28;20034;-27
2023/09/23 13:26:39;;;;;;;1.57;0.87;;;;;;;19.59;49.98;96834.66;10294003;28;20340;-27
2023/09/23 13:31:39;;;;;;;3.00;0.95;;;;;;;19.45;50.57;96836.38;10288193;28;20052;-27
2023/09/23 13:36:40;;;;;;;1.85;0.82;;;;;;;19.57;50.31;96833.78;10285122;28;20117;-26
2023/09/23 13:41:40;;;;;;;1.73;0.80;;;;;;;19.60;50.68;96854.13;10289013;28;20035;-26
2023/09/23 13:46:41;;;;;;;2.20;0.80;;;;;;;19.55;50.46;96848.19;10285609;28;20365;-27
2023/09/23 13:51:41;;;;;;;2.60;0.87;;;;;;;19.56;51.01;96849.88;10289385;28;20030;-26
2023/09/23 13:56:41;;;;;;;3.40;0.90;;;;;;;19.55;50.00;96850.72;10290213;28;20712;-26
2023/09/23 14:01:42;;;;;;;2.72;0.98;;;;;;;19.57;50.98;96860.03;10290521;28;20114;-25
2023/09/23 14:06:42;;;;;;;4.20;0.80;;;;;;;19.62;51.05;96852.41;10289800;28;20104;-24
2023/09/23 14:11:43;;;;;;;2.83;0.50;;;;;;;19.60;51.22;96849.03;10286304;28;20421;-26
2023/09/23 14:16:43;;;;;;;2.58;0.80;;;;;;;19.51;51.49;96843.97;10285047;28;20303;-27
2023/09/23 14:21:44;;;;;;;6.45;0.60;;;;;;;19.58;51.73;96850.75;10289206;28;20409;-27
2023/09/23 14:26:44;;;;;;;16.07;1.23;;;;;;;19.64;51.24;96853.25;10290249;28;20491;-27
2023/09/23 14:31:44;;;;;;;2.20;0.70;;;;;;;19.60;52.05;96849.84;10293036;28;20333;-26
2023/09/23 14:36:45;;;;;;;2.50;0.50;;;;;;;19.60;52.12;96859.19;10289783;28;20051;-26
2023/09/23 14:41:45;;;;;;;14.75;1.80;;;;;;;19.63;52.54;96857.50;10286271;28;20085;-25
2023/09/23 14:46:46;;;;;;;6.90;1.07;;;;;;;19.68;51.63;96867.63;10287820;28;20037;-27
2023/09/23 14:51:47;;;;;;;3.42;0.98;;;;;;;19.67;52.48;96863.41;10289850;28;20656;-25
2023/09/23 14:56:47;;;;;;;2.90;0.80;;;;;;;19.77;52.15;96868.44;10288660;28;20486;-27
2023/09/23 15:01:48;;;;;;;8.23;1.03;;;;;;;19.81;52.26;96866.75;10288961;28;20038;-26
2023/09/23 15:06:48;;;;;;;5.93;1.40;;;;;;;19.85;52.30;96876.88;10287074;28;20046;-26
2023/09/23 15:11:49;;;;;;;4.60;0.83;;;;;;;19.87;52.09;96876.91;10281416;28;20047;-27
2023/09/23 15:16:50;;;;;;;6.03;1.57;;;;;;;19.88;52.27;96881.13;10284089;28;20047;-26
2023/09/23 15:21:50;;;;;;;9.07;1.30;;;;;;;19.91;52.32;96886.22;10286044;28;20047;-27
2023/09/23 15:26:51;;;;;;;9.93;1.33;;;;;;;19.91;52.89;96891.31;10283999;28;20110;-27
2023/09/23 15:31:51;;;;;;;6.38;1.15;;;;;;;19.89;51.03;96898.91;10282979;28;20581;-26
2023/09/23 15:36:54;;;;;;;6.85;1.95;;;;;;;19.83;50.14;96900.63;10286924;28;20037;-27
2023/09/23 15:41:55;;;;;;;2.60;1.15;;;;;;;19.87;50.71;96900.63;10287213;28;20069;-27
2023/09/23 15:46:55;;;;;;;7.30;1.03;;;;;;;19.91;51.41;96912.44;10283059;28;20030;-26
2023/09/23 15:51:56;;;;;;;4.03;1.35;;;;;;;19.92;51.60;96919.22;10284203;28;20031;-27
2023/09/23 15:56:56;;;;;;;5.10;1.20;;;;;;;19.91;51.77;96926.88;10285883;28;20142;-27
2023/09/23 16:01:57;;;;;;;3.77;0.80;;;;;;;19.94;52.00;96934.47;10279337;28;20085;-26
2023/09/23 16:06:57;;;;;;;10.65;1.73;;;;;;;20.00;52.78;96931.94;10284562;28;20370;-28
2023/09/23 16:11:58;;;;;;;10.23;2.17;;;;;;;19.95;52.83;96943.78;10281534;28;20433;-26
2023/09/23 16:16:58;;;;;;;8.93;1.70;;;;;;;19.94;53.07;96953.09;10285003;28;20039;-27
2023/09/23 16:21:58;;;;;;;6.80;0.93;;;;;;;19.93;53.29;96948.03;10280615;28;20042;-27
2023/09/23 16:26:59;;;;;;;3.42;1.10;;;;;;;19.95;53.41;96946.34;10282093;28;20046;-27
2023/09/23 16:32:00;;;;;;;8.93;1.50;;;;;;;19.93;53.25;96955.66;10284493;28;20035;-26
2023/09/23 16:37:01;;;;;;;6.53;1.20;;;;;;;19.92;53.57;96959.06;10283880;28;20034;-27
2023/09/23 16:42:03;;;;;;;3.50;0.90;;;;;;;19.92;53.79;96964.97;10280979;28;20490;-27
2023/09/23 16:47:04;;;;;;;3.90;1.58;;;;;;;19.94;54.07;96978.50;10285719;28;20298;-26
2023/09/23 16:52:04;;;;;;;6.90;1.87;;;;;;;19.97;54.17;96986.16;10290292;28;20042;-27
2023/09/23 16:57:05;;;;;;;5.63;1.50;;;;;;;19.94;53.92;96993.75;10289121;28;20049;-27
2023/09/23 17:02:08;;;;;;;7.88;1.20;;;;;;;19.92;53.58;96994.63;10290135;28;20286;-27
2023/09/23 17:07:08;;;;;;;3.35;1.40;;;;;;;19.93;53.67;96994.59;10289171;28;20038;-27
2023/09/23 17:12:12;;;;;;;1.98;0.75;;;;;;;19.94;53.68;96998.00;10291951;28;20498;-26
2023/09/23 17:17:12;;;;;;;4.22;1.10;;;;;;;19.92;54.14;97007.34;10286973;28;20039;-25
2023/09/23 17:22:13;;;;;;;3.07;0.90;;;;;;;19.92;54.01;97015.78;10284629;28;20039;-27
2023/09/23 17:27:14;;;;;;;3.30;0.90;;;;;;;19.93;53.99;97034.44;10288789;28;20298;-26
2023/09/23 17:32:15;;;;;;;9.18;1.55;;;;;;;19.91;53.81;97042.06;10285398;28;20027;-26
2023/09/23 17:37:15;;;;;;;5.47;1.00;;;;;;;19.92;53.84;97050.53;10284079;28;20045;-26
2023/09/23 17:42:16;;;;;;;5.57;1.00;;;;;;;19.90;53.93;97054.75;10288725;28;20282;-26
2023/09/23 17:47:16;;;;;;;3.20;1.30;;;;;;;19.88;54.51;97054.78;10287386;28;20130;-27
2023/09/23 17:52:16;;;;;;;5.57;0.93;;;;;;;19.56;54.12;97065.75;10279391;28;20299;-27
2023/09/23 17:57:17;;;;;;;3.23;1.07;;;;;;;19.36;53.47;97075.03;10292120;28;20041;-26
2023/09/23 18:02:17;;;;;;;1.37;0.70;;;;;;;19.29;53.29;97091.09;10286269;28;20281;-26
2023/09/23 18:07:17;;;;;;;1.63;0.77;;;;;;;19.16;53.33;97099.50;10291189;28;20661;-26
2023/09/23 18:12:18;;;;;;;1.30;0.63;;;;;;;19.09;54.44;97116.38;10285894;28;20453;-28
2023/09/23 18:17:18;;;;;;;2.53;0.70;;;;;;;19.03;54.57;97123.13;10280958;28;20302;-26
2023/09/23 18:22:19;;;;;;;1.40;0.97;;;;;;;19.04;54.67;97140.91;10279275;28;20510;-27
2023/09/23 18:27:19;;;;;;;1.80;1.10;;;;;;;18.99;55.18;97134.13;10262017;28;20039;-26
2023/09/23 18:32:19;;;;;;;2.37;0.90;;;;;;;19.01;55.66;97145.13;10284207;28;20030;-26
2023/09/23 18:37:20;;;;;;;1.60;0.93;;;;;;;19.05;55.52;97151.88;10274492;28;20789;-26
2023/09/23 18:42:21;;;;;;;1.80;1.10;;;;;;;18.96;55.79;97162.84;10281929;28;20058;-25
2023/09/23 18:47:22;;;;;;;1.15;1.05;;;;;;;18.84;55.90;97164.47;10283500;28;20031;-26
2023/09/23 18:52:22;;;;;;;1.13;0.60;;;;;;;18.83;55.74;97170.41;10282010;28;20063;-26
2023/09/23 18:57:23;;;;;;;1.45;0.65;;;;;;;18.77;55.67;97177.97;10278110;28;20053;-27
2023/09/23 19:02:25;;;;;;;2.13;0.88;;;;;;;18.83;55.64;97195.75;10282991;28;20034;-26
2023/09/23 19:07:25;;;;;;;2.28;0.80;;;;;;;18.71;55.80;97188.91;10277987;28;20035;-26
2023/09/23 19:12:26;;;;;;;2.33;0.70;;;;;;;18.74;55.56;97200.78;10274624;28;20453;-26
2023/09/23 19:17:26;;;;;;;1.83;0.70;;;;;;;18.77;55.36;97210.94;10281330;28;20074;-26
2023/09/23 19:22:27;;;;;;;1.40;0.87;;;;;;;18.74;55.61;97205.84;10274642;28;20039;-26
2023/09/23 19:27:27;;;;;;;1.23;0.70;;;;;;;18.72;55.73;97212.56;10280078;28;20296;-25
2023/09/23 19:32:28;;;;;;;0.87;0.70;;;;;;;18.74;55.56;97216.00;10278477;28;20302;-27
2023/09/23 19:37:28;;;;;;;1.47;0.70;;;;;;;18.68;55.66;97221.03;10280078;28;20067;-26
2023/09/23 19:42:28;;;;;;;1.03;0.70;;;;;;;18.66;55.50;97230.31;10285422;28;20042;-26
2023/09/23 19:47:30;;;;;;;2.60;1.17;;;;;;;18.55;55.45;97240.38;10281594;28;20038;-27
2023/09/23 19:52:32;;;;;;;2.40;0.98;;;;;;;18.67;55.74;97250.59;10285205;28;20576;-26
2023/09/23 19:57:33;;;;;;;2.38;0.95;;;;;;;18.65;55.30;97249.75;10283091;28;20034;-26
2023/09/23 20:02:33;;;;;;;2.05;0.85;;;;;;;18.67;55.38;97250.59;10283043;28;20043;-26
2023/09/23 20:07:37;;;;;;;2.10;0.80;;;;;;;18.61;55.42;97250.56;10291064;28;20109;-27
2023/09/23 20:12:37;;;;;;;1.02;0.80;;;;;;;18.56;55.45;97261.47;10278828;28;20034;-26
2023/09/23 20:17:38;;;;;;;3.17;1.10;;;;;;;18.56;55.27;97269.09;10279786;28;20043;-26
2023/09/23 20:22:41;;;;;;;3.72;1.15;;;;;;;18.54;55.44;97273.31;10292792;28;20061;-26
2023/09/23 20:27:43;;;;;;;1.90;1.10;;;;;;;18.54;55.36;97286.00;10294421;28;20411;-26
2023/09/23 20:32:43;;;;;;;1.70;0.90;;;;;;;18.49;55.38;97282.59;10292884;28;20126;-26
2023/09/23 20:37:44;;;;;;;1.40;0.80;;;;;;;18.44;55.37;97281.69;10285335;28;20053;-27
2023/09/23 20:42:44;;;;;;;4.45;0.98;;;;;;;18.45;55.33;97289.31;10293786;28;20413;-27
2023/09/23 20:47:45;;;;;;;3.28;0.95;;;;;;;18.43;55.31;97298.56;10290708;28;20117;-27
2023/09/23 20:52:46;;;;;;;2.67;0.95;;;;;;;18.43;55.31;97306.16;10287200;28;20039;-26
2023/09/23 20:57:46;;;;;;;2.20;1.00;;;;;;;18.42;55.73;97306.19;10293026;28;20489;-27
2023/09/23 21:02:47;;;;;;;3.17;0.97;;;;;;;18.38;55.61;97304.44;10291953;28;20054;-28
2023/09/23 21:07:47;;;;;;;1.98;1.00;;;;;;;18.37;55.62;97320.47;10288449;28;20038;-26
2023/09/23 21:12:47;;;;;;;2.20;0.90;;;;;;;18.38;55.50;97317.09;10286744;28;20500;-26
2023/09/23 21:17:48;;;;;;;3.47;1.03;;;;;;;18.40;55.26;97330.66;10286873;28;20035;-26
2023/09/23 21:22:48;;;;;;;1.83;0.93;;;;;;;18.37;54.98;97330.63;10269376;28;20047;-26
2023/09/23 21:27:48;;;;;;;3.17;0.93;;;;;;;18.30;54.76;97329.72;10290211;28;20776;-26
2023/09/23 21:32:49;;;;;;;2.37;0.70;;;;;;;18.36;54.68;97344.13;10288067;28;20565;-26
2023/09/23 21:37:51;;;;;;;2.70;1.23;;;;;;;18.29;54.65;97334.72;10284045;28;20302;-26
2023/09/23 21:42:52;;;;;;;5.88;1.60;;;;;;;18.34;54.38;97323.81;10288964;28;20031;-26
2023/09/23 21:47:52;;;;;;;1.77;1.10;;;;;;;18.34;54.45;97331.44;10289342;28;20027;-26
2023/09/23 21:52:52;;;;;;;1.73;0.80;;;;;;;18.26;54.06;97332.16;10282997;28;20677;-26
2023/09/23 21:57:53;;;;;;;2.03;0.90;;;;;;;18.28;53.97;97335.56;10289792;28;20054;-26
2023/09/23 22:02:58;;;;;;;1.13;0.77;;;;;;;18.26;53.69;97337.25;10287990;28;20039;-26
2023/09/23 22:08:00;;;;;;;1.17;0.70;;;;;;;18.19;53.63;97338.00;10287294;28;20045;-26
2023/09/23 22:13:00;;;;;;;1.48;0.65;;;;;;;18.20;53.49;97332.09;10289722;28;20449;-27
2023/09/23 22:18:01;;;;;;;0.87;0.70;;;;;;;18.12;53.40;97324.41;10289492;28;20042;-26
2023/09/23 22:23:01;;;;;;;2.25;0.90;;;;;;;18.17;53.43;97332.91;10283135;28;20066;-26
2023/09/23 22:28:02;;;;;;;1.20;0.90;;;;;;;18.13;53.54;97345.53;10284368;28;20537;-26
2023/09/23 22:33:03;;;;;;;2.60;2.15;;;;;;;18.13;53.29;97340.47;10283489;28;20062;-26
2023/09/23 22:38:04;;;;;;;2.72;0.82;;;;;;;18.13;53.10;97337.94;10280162;28;20053;-26
2023/09/23 22:43:05;;;;;;;2.17;0.85;;;;;;;18.03;52.96;97333.59;10287747;28;20030;-26
2023/09/23 22:48:07;;;;;;;1.65;0.70;;;;;;;18.06;53.30;97341.22;10286604;28;20049;-26
2023/09/23 22:53:07;;;;;;;1.15;0.57;;;;;;;18.05;52.55;97344.59;10282235;28;20081;-26
2023/09/23 22:58:07;;;;;;;3.80;1.10;;;;;;;18.01;53.19;97350.47;10288607;28;20097;-26
2023/09/23 23:03:08;;;;;;;1.27;0.67;;;;;;;17.97;52.81;97351.25;10290424;28;20293;-26
2023/09/23 23:08:08;;;;;;;2.13;0.77;;;;;;;18.01;52.57;97343.69;10285159;28;20039;-26
2023/09/23 23:13:09;;;;;;;1.67;0.55;;;;;;;18.05;52.04;97344.59;10286833;28;20047;-27
2023/09/23 23:18:09;;;;;;;2.67;0.80;;;;;;;17.90;52.46;97352.03;10285383;28;20489;-27
2023/09/23 23:23:09;;;;;;;0.80;0.60;;;;;;;17.98;52.35;97365.66;10280964;28;20066;-26